createdAt,value
2019-04-04T00:02:09.407Z,100636.86
2019-04-04T00:04:39.342Z,100638.16
2019-04-04T00:07:09.919Z,100621.98
2019-04-04T00:09:40.121Z,100619.44
2019-04-04T00:12:10.106Z,100619.44
2019-04-04T00:14:40.182Z,100625.99
2019-04-04T00:17:10.100Z,100626.45
2019-04-04T00:19:40.340Z,100629.95
2019-04-04T00:22:10.716Z,100625.14
2019-04-04T00:24:41.017Z,100617.72
2019-04-04T00:27:13.362Z,100617.72
2019-04-04T00:29:42.659Z,100625.61
2019-04-04T00:32:12.905Z,100625.61
2019-04-04T00:34:42.594Z,100621.21
2019-04-04T00:37:12.555Z,100616.84
2019-04-04T00:39:42.767Z,100626.47
2019-04-04T00:42:12.657Z,100613.78
2019-04-04T00:44:42.733Z,100607.20
2019-04-04T00:47:12.712Z,100604.16
2019-04-04T00:49:42.797Z,100596.72
2019-04-04T00:52:12.658Z,100603.28
2019-04-04T00:54:42.989Z,100598.05
2019-04-04T00:57:14.286Z,100597.64
2019-04-04T00:59:43.966Z,100599.41
2019-04-04T01:02:13.623Z,100592.38
2019-04-04T01:04:43.715Z,100589.33
2019-04-04T01:07:13.876Z,100594.61
2019-04-04T01:09:43.801Z,100590.67
2019-04-04T01:12:13.733Z,100587.16
2019-04-04T01:14:43.846Z,100586.31
2019-04-04T01:17:13.735Z,100585.46
2019-04-04T01:19:43.794Z,100582.84
2019-04-04T01:22:13.893Z,100584.61
2019-04-04T01:24:44.128Z,100581.08
2019-04-04T01:27:13.906Z,100581.08
2019-04-04T01:29:43.839Z,100573.23
2019-04-04T01:32:15.133Z,100576.70
2019-04-04T01:34:45.455Z,100567.09
2019-04-04T01:37:15.540Z,100566.22
2019-04-04T01:39:45.456Z,100574.55
2019-04-04T01:42:15.511Z,100579.39
2019-04-04T01:44:46.245Z,100570.66
2019-04-04T01:47:17.051Z,100575.04
2019-04-04T01:49:47.847Z,100579.43
2019-04-04T01:52:17.710Z,100573.28
2019-04-04T01:54:47.636Z,100576.80
2019-04-04T01:57:17.571Z,100586.44
2019-04-04T01:59:47.459Z,100584.70
2019-04-04T02:02:18.418Z,100579.45
2019-04-04T02:04:48.383Z,100584.67
2019-04-04T02:07:18.090Z,100589.50
2019-04-04T02:09:48.587Z,100584.70
2019-04-04T02:12:18.574Z,100586.44
2019-04-04T02:14:48.423Z,100582.95
2019-04-04T02:17:18.240Z,100582.48
2019-04-04T02:19:48.164Z,100572.87
2019-04-04T02:22:18.089Z,100573.31
2019-04-04T02:24:48.145Z,100568.95
2019-04-04T02:27:17.970Z,100579.48
2019-04-04T02:29:47.809Z,100572.03
2019-04-04T02:32:18.751Z,100569.83
2019-04-04T02:34:48.580Z,100562.85
2019-04-04T02:37:20.512Z,100559.35
2019-04-04T02:39:50.567Z,100560.26
2019-04-04T02:42:22.194Z,100550.63
2019-04-04T02:44:52.104Z,100555.01
2019-04-04T02:47:21.975Z,100554.99
2019-04-04T02:49:51.774Z,100564.19
2019-04-04T02:52:21.920Z,100562.44
2019-04-04T02:54:52.049Z,100559.37
2019-04-04T02:57:21.789Z,100558.48
2019-04-04T02:59:53.500Z,100564.61
2019-04-04T03:02:23.840Z,100563.75
2019-04-04T03:04:54.863Z,100557.61
2019-04-04T03:07:24.848Z,100554.14
2019-04-04T03:09:54.747Z,100549.75
2019-04-04T03:12:26.238Z,100549.75
2019-04-04T03:14:56.120Z,100545.83
2019-04-04T03:17:25.941Z,100554.13
2019-04-04T03:19:55.708Z,100554.13
2019-04-04T03:22:27.434Z,100563.73
2019-04-04T03:24:57.242Z,100576.86
2019-04-04T03:27:27.386Z,100564.61
2019-04-04T03:29:57.420Z,100562.85
2019-04-04T03:32:27.993Z,100559.37
2019-04-04T03:34:57.896Z,100556.30
2019-04-04T03:37:27.604Z,100548.87
2019-04-04T03:39:58.000Z,100561.12
2019-04-04T03:42:27.857Z,100561.12
2019-04-04T03:44:57.750Z,100557.61
2019-04-04T03:47:27.716Z,100539.69
2019-04-04T03:49:58.037Z,100538.39
2019-04-04T03:52:27.701Z,100523.08
2019-04-04T03:54:57.826Z,100524.83
2019-04-04T03:57:27.569Z,100516.52
2019-04-04T03:59:57.592Z,100510.41
2019-04-04T04:02:27.770Z,100510.41
2019-04-04T04:05:00.493Z,100511.27
2019-04-04T04:07:29.173Z,100505.59
2019-04-04T04:09:59.654Z,100505.59
2019-04-04T04:12:30.535Z,100502.08
2019-04-04T04:15:00.206Z,100495.99
2019-04-04T04:17:30.051Z,100493.36
2019-04-04T04:20:03.288Z,100495.11
2019-04-04T04:22:31.674Z,100496.38
2019-04-04T04:25:03.286Z,100495.99
2019-04-04T04:27:33.707Z,100499.91
2019-04-04T04:30:07.166Z,100505.59
2019-04-04T04:32:37.374Z,100504.28
2019-04-04T04:35:09.011Z,100503.41
2019-04-04T04:37:39.153Z,100500.78
2019-04-04T04:40:13.797Z,100495.97
2019-04-04T04:42:41.317Z,100505.16
2019-04-04T04:45:12.466Z,100503.41
2019-04-04T04:47:42.595Z,100514.31
2019-04-04T04:50:12.759Z,100520.88
2019-04-04T04:52:46.329Z,100528.73
2019-04-04T04:55:14.265Z,100516.95
2019-04-04T04:57:44.035Z,100510.34
2019-04-04T05:00:16.174Z,100503.36
2019-04-04T05:02:46.239Z,100513.81
2019-04-04T05:05:16.571Z,100506.81
2019-04-04T05:07:46.420Z,100506.81
2019-04-04T05:10:16.601Z,100500.27
2019-04-04T05:12:46.753Z,100500.27
2019-04-04T05:15:16.654Z,100503.77
2019-04-04T05:17:46.740Z,100503.77
2019-04-04T05:20:16.326Z,100506.38
2019-04-04T05:22:46.545Z,100512.06
2019-04-04T05:25:16.464Z,100514.67
2019-04-04T05:27:46.310Z,100515.14
2019-04-04T05:30:16.798Z,100509.91
2019-04-04T05:32:50.029Z,100516.00
2019-04-04T05:35:19.912Z,100511.66
2019-04-04T05:37:51.087Z,100512.97
2019-04-04T05:40:23.614Z,100502.50
2019-04-04T05:42:53.167Z,100500.80
2019-04-04T05:45:23.173Z,100494.69
2019-04-04T05:47:54.953Z,100499.94
2019-04-04T05:50:25.881Z,100496.00
2019-04-04T05:52:55.839Z,100491.19
2019-04-04T05:55:26.127Z,100491.19
2019-04-04T05:57:56.016Z,100499.07
2019-04-04T06:00:27.454Z,100490.76
2019-04-04T06:02:57.576Z,100491.19
2019-04-04T06:05:27.919Z,100485.09
2019-04-04T06:07:57.727Z,100486.80
2019-04-04T06:10:27.833Z,100485.07
2019-04-04T06:12:57.611Z,100485.95
2019-04-04T06:15:27.525Z,100492.05
2019-04-04T06:17:57.395Z,100492.92
2019-04-04T06:20:27.206Z,100485.92
2019-04-04T06:22:57.224Z,100484.19
2019-04-04T06:25:27.525Z,100479.81
2019-04-04T06:27:57.593Z,100483.30
2019-04-04T06:30:27.672Z,100480.24
2019-04-04T06:32:58.069Z,100472.77
2019-04-04T06:35:28.208Z,100484.55
2019-04-04T06:37:57.979Z,100482.38
2019-04-04T06:40:28.119Z,100483.67
2019-04-04T06:42:59.451Z,100489.34
2019-04-04T06:45:29.757Z,100481.88
2019-04-04T06:47:59.509Z,100469.62
2019-04-04T06:50:29.100Z,100472.20
2019-04-04T06:52:58.941Z,100473.50
2019-04-04T06:55:29.512Z,100468.17
2019-04-04T06:57:59.392Z,100469.05
2019-04-04T07:00:29.340Z,100470.77
2019-04-04T07:02:59.433Z,100474.28
2019-04-04T07:05:29.187Z,100469.03
2019-04-04T07:07:59.218Z,100473.35
2019-04-04T07:10:29.151Z,100473.69
2019-04-04T07:13:14.573Z,100472.80
2019-04-04T07:15:30.911Z,100472.80
2019-04-04T07:18:02.127Z,100469.72
2019-04-04T07:20:32.317Z,100482.04
2019-04-04T07:23:02.190Z,100484.59
2019-04-04T07:25:31.990Z,100482.85
2019-04-04T07:28:02.009Z,100482.83
2019-04-04T07:30:32.273Z,100482.31
2019-04-04T07:33:02.052Z,100469.08
2019-04-04T07:35:32.025Z,100474.71
2019-04-04T07:38:02.078Z,100473.86
2019-04-04T07:40:34.070Z,100473.86
2019-04-04T07:43:04.096Z,100475.20
2019-04-04T07:45:33.927Z,100476.44
2019-04-04T07:50:38.399Z,100482.38
2019-04-04T07:53:08.388Z,100480.70
2019-04-04T07:55:40.121Z,100476.26
2019-04-04T07:58:10.463Z,100493.70
2019-04-04T08:00:40.557Z,100494.58
2019-04-04T08:03:10.324Z,100505.84
2019-04-04T08:05:40.468Z,100507.97
2019-04-04T08:08:10.626Z,100503.97
2019-04-04T08:10:40.890Z,100498.16
2019-04-04T08:13:10.927Z,100492.89
2019-04-04T08:15:41.003Z,100490.67
2019-04-04T08:18:11.154Z,100485.77
2019-04-04T08:20:41.107Z,100480.00
2019-04-04T08:23:11.009Z,100486.94
2019-04-04T08:25:41.241Z,100482.52
2019-04-04T08:28:11.454Z,100484.91
2019-04-04T08:30:41.441Z,100483.06
2019-04-04T08:33:11.571Z,100482.86
2019-04-04T08:35:41.409Z,100485.47
2019-04-04T08:38:11.342Z,100475.73
2019-04-04T08:40:41.807Z,100479.14
2019-04-04T08:43:12.074Z,100475.14
2019-04-04T08:45:42.089Z,100472.94
2019-04-04T08:48:12.212Z,100475.14
2019-04-04T08:50:42.383Z,100461.95
2019-04-04T08:53:12.421Z,100478.88
2019-04-04T08:55:42.613Z,100482.21
2019-04-04T08:58:12.629Z,100481.73
2019-04-04T09:00:42.886Z,100483.09
2019-04-04T09:03:13.058Z,100479.49
2019-04-04T09:05:43.741Z,100477.19
2019-04-04T09:08:13.777Z,100478.91
2019-04-04T09:10:43.932Z,100475.02
2019-04-04T09:13:13.919Z,100469.78
2019-04-04T09:15:43.972Z,100467.94
2019-04-04T09:18:14.102Z,100471.47
2019-04-04T09:20:44.199Z,100475.70
2019-04-04T09:23:14.086Z,100476.61
2019-04-04T09:25:44.792Z,100478.25
2019-04-04T09:28:14.813Z,100472.37
2019-04-04T09:30:44.701Z,100475.45
2019-04-04T09:33:14.721Z,100472.23
2019-04-04T09:35:44.577Z,100463.79
2019-04-04T09:38:14.364Z,100462.56
2019-04-04T09:40:44.567Z,100464.32
2019-04-04T09:43:14.345Z,100463.66
2019-04-04T09:45:43.893Z,100464.31
2019-04-04T09:48:14.211Z,100466.80
2019-04-04T09:50:43.923Z,100457.75
2019-04-04T09:53:13.706Z,100467.82
2019-04-04T09:55:43.809Z,100463.00
2019-04-04T09:58:13.602Z,100460.19
2019-04-04T10:00:43.761Z,100463.28
2019-04-04T10:03:13.594Z,100454.25
2019-04-04T10:05:43.326Z,100449.17
2019-04-04T10:08:13.217Z,100453.54
2019-04-04T10:10:48.103Z,100451.60
2019-04-04T10:13:18.515Z,100449.59
2019-04-04T10:15:48.307Z,100449.92
2019-04-04T10:18:18.422Z,100439.66
2019-04-04T10:20:48.614Z,100444.37
2019-04-04T10:23:18.448Z,100436.89
2019-04-04T10:25:48.454Z,100444.50
2019-04-04T10:28:18.488Z,100431.64
2019-04-04T10:30:48.409Z,100438.42
2019-04-04T10:33:18.630Z,100436.15
2019-04-04T10:35:48.474Z,100438.03
2019-04-04T10:38:18.448Z,100432.62
2019-04-04T10:40:48.809Z,100431.33
2019-04-04T10:43:19.356Z,100440.58
2019-04-04T10:45:49.586Z,100440.92
2019-04-04T10:48:19.512Z,100439.81
2019-04-04T10:50:49.605Z,100441.50
2019-04-04T10:53:19.971Z,100434.20
2019-04-04T10:55:49.654Z,100440.98
2019-04-04T10:58:19.622Z,100438.94
2019-04-04T11:00:49.710Z,100432.16
2019-04-04T11:03:19.296Z,100430.58
2019-04-04T11:05:49.007Z,100427.17
2019-04-04T11:08:19.534Z,100422.38
2019-04-04T11:10:49.453Z,100421.47
2019-04-04T11:13:32.564Z,100423.42
2019-04-04T11:15:51.511Z,100427.79
2019-04-04T11:18:21.603Z,100425.22
2019-04-04T11:20:51.842Z,100426.70
2019-04-04T11:23:22.013Z,100422.63
2019-04-04T11:25:51.933Z,100426.74
2019-04-04T11:28:21.979Z,100431.70
2019-04-04T11:30:52.043Z,100429.14
2019-04-04T11:33:22.028Z,100438.00
2019-04-04T11:35:51.930Z,100422.31
2019-04-04T11:38:21.852Z,100428.69
2019-04-04T11:40:51.650Z,100433.38
2019-04-04T11:43:22.242Z,100432.76
2019-04-04T11:45:52.114Z,100429.89
2019-04-04T11:48:22.085Z,100438.67
2019-04-04T11:50:51.953Z,100438.08
2019-04-04T11:53:21.728Z,100435.04
2019-04-04T11:55:51.758Z,100432.00
2019-04-04T11:58:21.670Z,100441.69
2019-04-04T12:00:52.685Z,100433.71
2019-04-04T12:03:22.839Z,100436.16
2019-04-04T12:05:54.754Z,100435.73
2019-04-04T12:08:24.887Z,100436.90
2019-04-04T12:10:54.854Z,100432.45
2019-04-04T12:13:24.996Z,100429.47
2019-04-04T12:15:55.162Z,100436.03
2019-04-04T12:18:25.093Z,100429.70
2019-04-04T12:20:55.174Z,100430.53
2019-04-04T12:23:25.132Z,100428.86
2019-04-04T12:25:55.159Z,100428.30
2019-04-04T12:28:25.320Z,100421.70
2019-04-04T12:30:55.520Z,100426.98
2019-04-04T12:33:25.507Z,100435.73
2019-04-04T12:35:55.639Z,100430.53
2019-04-04T12:38:25.547Z,100426.80
2019-04-04T12:40:55.492Z,100421.51
2019-04-04T12:43:25.682Z,100420.98
2019-04-04T12:45:55.941Z,100420.52
2019-04-04T12:48:25.648Z,100418.35
2019-04-04T12:50:56.138Z,100413.22
2019-04-04T12:53:26.440Z,100412.58
2019-04-04T12:55:56.427Z,100404.09
2019-04-04T12:58:26.722Z,100403.75
2019-04-04T13:00:56.991Z,100404.27
2019-04-04T13:03:27.394Z,100404.77
2019-04-04T13:05:57.676Z,100399.44
2019-04-04T13:08:30.392Z,100395.28
2019-04-04T13:10:59.780Z,100395.20
2019-04-04T13:13:29.546Z,100394.21
2019-04-04T13:15:59.578Z,100399.52
2019-04-04T13:18:29.943Z,100403.94
2019-04-04T13:20:59.876Z,100398.30
2019-04-04T13:23:29.933Z,100400.73
2019-04-04T13:26:00.037Z,100410.19
2019-04-04T13:28:30.008Z,100398.32
2019-04-04T13:31:00.187Z,100395.20
2019-04-04T13:33:30.226Z,100403.27
2019-04-04T13:36:00.168Z,100400.41
2019-04-04T13:38:30.014Z,100400.46
2019-04-04T13:41:00.088Z,100398.62
2019-04-04T13:43:29.974Z,100404.09
2019-04-04T13:46:00.280Z,100402.47
2019-04-04T13:48:30.480Z,100407.95
2019-04-04T13:51:00.445Z,100399.00
2019-04-04T13:53:30.410Z,100398.20
2019-04-04T13:56:00.582Z,100407.06
2019-04-04T13:58:30.367Z,100398.21
2019-04-04T14:01:00.717Z,100406.08
2019-04-04T14:03:30.738Z,100404.67
2019-04-04T14:06:01.910Z,100408.47
2019-04-04T14:08:32.303Z,100410.08
2019-04-04T14:11:02.161Z,100402.22
2019-04-04T14:13:32.186Z,100410.08
2019-04-04T14:16:02.691Z,100407.67
2019-04-04T14:18:39.617Z,100407.14
2019-04-04T14:21:04.838Z,100403.96
2019-04-04T14:23:34.921Z,100398.88
2019-04-04T14:26:05.024Z,100399.67
2019-04-04T14:28:35.408Z,100398.21
2019-04-04T14:31:05.725Z,100402.63
2019-04-04T14:33:35.880Z,100406.48
2019-04-04T14:36:05.856Z,100413.92
2019-04-04T14:38:35.832Z,100407.13
2019-04-04T14:41:11.357Z,100409.59
2019-04-04T14:43:38.085Z,100412.72
2019-04-04T14:46:08.074Z,100402.47
2019-04-04T14:48:37.982Z,100407.80
2019-04-04T14:51:08.012Z,100406.97
2019-04-04T14:53:37.623Z,100411.38
2019-04-04T14:56:07.340Z,100412.05
2019-04-04T14:58:37.087Z,100407.72
2019-04-04T15:01:07.271Z,100412.18
2019-04-04T15:03:37.114Z,100407.39
2019-04-04T15:06:07.245Z,100406.97
2019-04-04T15:08:36.838Z,100404.19
2019-04-04T15:11:06.854Z,100405.91
2019-04-04T15:13:36.981Z,100410.59
2019-04-04T15:16:14.403Z,100407.13
2019-04-04T15:18:45.383Z,100408.84
2019-04-04T15:21:15.677Z,100412.72
2019-04-04T15:23:45.405Z,100407.13
2019-04-04T15:26:16.019Z,100399.93
2019-04-04T15:28:45.841Z,100408.12
2019-04-04T15:31:15.611Z,100407.97
2019-04-04T15:33:45.440Z,100411.36
2019-04-04T15:36:15.175Z,100407.37
2019-04-04T15:38:45.048Z,100411.36
2019-04-04T15:41:15.073Z,100414.53
2019-04-04T15:43:45.094Z,100423.51
2019-04-04T15:46:15.315Z,100419.44
2019-04-04T15:48:45.399Z,100422.30
2019-04-04T15:51:15.085Z,100424.73
2019-04-04T15:53:45.037Z,100423.94
2019-04-04T15:56:15.227Z,100433.27
2019-04-04T15:58:44.904Z,100429.27
2019-04-04T16:01:14.827Z,100423.79
2019-04-04T16:03:44.430Z,100437.75
2019-04-04T16:06:14.287Z,100428.97
2019-04-04T16:08:44.154Z,100432.66
2019-04-04T16:11:14.172Z,100439.31
2019-04-04T16:13:43.789Z,100440.37
2019-04-04T16:16:14.083Z,100446.12
2019-04-04T16:18:43.896Z,100452.61
2019-04-04T16:21:13.608Z,100456.27
2019-04-04T16:23:43.768Z,100457.25
2019-04-04T16:26:13.878Z,100461.73
2019-04-04T16:28:43.960Z,100456.14
2019-04-04T16:31:13.994Z,100462.38
2019-04-04T16:33:43.659Z,100461.19
2019-04-04T16:36:13.496Z,100432.19
2019-04-04T16:38:43.622Z,100461.30
2019-04-04T16:41:14.610Z,100462.09
2019-04-04T16:43:44.713Z,100468.48
2019-04-04T16:46:14.672Z,100471.63
2019-04-04T16:48:44.689Z,100465.96
2019-04-04T16:51:14.743Z,100472.27
2019-04-04T16:53:44.586Z,100476.78
2019-04-04T16:56:14.349Z,100480.92
2019-04-04T16:58:44.514Z,100486.73
2019-04-04T17:01:14.291Z,100481.41
2019-04-04T17:03:44.317Z,100485.12
2019-04-04T17:06:14.361Z,100483.51
2019-04-04T17:08:44.008Z,100485.86
2019-04-04T17:11:13.574Z,100487.36
2019-04-04T17:13:43.869Z,100492.01
2019-04-04T17:16:13.608Z,100498.23
2019-04-04T17:18:43.462Z,100487.84
2019-04-04T17:21:13.415Z,100492.45
2019-04-04T17:23:42.970Z,100499.66
2019-04-04T17:26:12.779Z,100515.67
2019-04-04T17:28:42.719Z,100504.20
2019-04-04T17:31:12.537Z,100511.53
2019-04-04T17:33:42.784Z,100506.31
2019-04-04T17:36:12.459Z,100517.92
2019-04-04T17:38:42.589Z,100509.72
2019-04-04T17:41:12.396Z,100519.99
2019-04-04T17:43:42.105Z,100517.44
2019-04-04T17:46:12.467Z,100517.59
2019-04-04T17:48:42.846Z,100525.70
2019-04-04T17:51:14.563Z,100534.70
2019-04-04T17:53:46.939Z,100535.31
2019-04-04T17:56:16.988Z,100537.67
2019-04-04T17:58:47.301Z,100538.16
2019-04-04T18:01:17.270Z,100538.28
2019-04-04T18:03:47.094Z,100545.08
2019-04-04T18:06:17.109Z,100550.02
2019-04-04T18:08:46.976Z,100555.00
2019-04-04T18:11:16.888Z,100559.65
2019-04-04T18:13:47.212Z,100563.84
2019-04-04T18:16:17.277Z,100569.75
2019-04-04T18:18:47.577Z,100573.52
2019-04-04T18:21:17.672Z,100572.58
2019-04-04T18:23:47.907Z,100577.16
2019-04-04T18:26:17.662Z,100586.65
2019-04-04T18:28:47.864Z,100595.66
2019-04-04T18:31:17.573Z,100605.91
2019-04-04T18:33:47.294Z,100606.80
2019-04-04T18:36:17.310Z,100607.88
2019-04-04T18:38:47.565Z,100613.27
2019-04-04T18:41:17.302Z,100621.28
2019-04-04T18:43:47.702Z,100624.52
2019-04-04T18:46:17.573Z,100625.11
2019-04-04T18:48:47.610Z,100623.43
2019-04-04T18:51:17.618Z,100629.16
2019-04-04T18:53:47.257Z,100635.05
2019-04-04T18:56:17.207Z,100636.45
2019-04-04T18:58:47.169Z,100642.34
2019-04-04T19:01:17.050Z,100646.82
2019-04-04T19:03:47.038Z,100648.73
2019-04-04T19:06:17.311Z,100650.50
2019-04-04T19:08:47.035Z,100654.93
2019-04-04T19:11:16.829Z,100658.59
2019-04-04T19:13:46.871Z,100661.81
2019-04-04T19:16:16.462Z,100657.91
2019-04-04T19:18:46.177Z,100667.27
2019-04-04T19:21:16.617Z,100666.44
2019-04-04T19:23:49.530Z,100675.39
2019-04-04T19:26:18.148Z,100672.81
2019-04-04T19:28:47.915Z,100684.31
2019-04-04T19:31:17.719Z,100692.31
2019-04-04T19:33:47.481Z,100686.69
2019-04-04T19:36:17.413Z,100690.64
2019-04-04T19:38:47.121Z,100695.55
2019-04-04T19:41:16.936Z,100696.18
2019-04-04T19:43:46.546Z,100693.20
2019-04-04T19:46:16.468Z,100694.59
2019-04-04T19:48:48.296Z,100699.13
2019-04-04T19:51:18.055Z,100699.75
2019-04-04T19:53:48.113Z,100707.43
2019-04-04T19:56:17.883Z,100701.36
2019-04-04T19:58:47.723Z,100701.42
2019-04-04T20:01:17.639Z,100701.86
2019-04-04T20:03:47.599Z,100700.59
2019-04-04T20:06:17.698Z,100702.48
2019-04-04T20:08:51.049Z,100705.25
2019-04-04T20:11:19.718Z,100712.90
2019-04-04T20:13:49.919Z,100714.50
2019-04-04T20:16:19.658Z,100721.27
2019-04-04T20:18:49.265Z,100722.21
2019-04-04T20:21:19.539Z,100728.14
2019-04-04T20:23:49.071Z,100725.11
2019-04-04T20:26:18.835Z,100726.19
2019-04-04T20:28:48.861Z,100720.95
2019-04-04T20:31:18.466Z,100729.83
2019-04-04T20:34:00.601Z,100724.28
2019-04-04T20:36:20.113Z,100729.18
2019-04-04T20:38:50.166Z,100729.77
2019-04-04T20:41:19.986Z,100726.81
2019-04-04T20:43:49.871Z,100734.84
2019-04-04T20:46:19.639Z,100735.42
2019-04-04T20:48:49.738Z,100733.38
2019-04-04T20:51:19.868Z,100735.11
2019-04-04T20:53:49.782Z,100737.00
2019-04-04T20:56:19.607Z,100734.44
2019-04-04T20:58:49.682Z,100747.17
2019-04-04T21:01:19.543Z,100746.91
2019-04-04T21:03:49.229Z,100750.59
2019-04-04T21:06:19.232Z,100747.19
2019-04-04T21:08:48.909Z,100749.98
2019-04-04T21:11:18.537Z,100749.14
2019-04-04T21:13:55.921Z,100754.42
2019-04-04T21:16:20.003Z,100758.97
2019-04-04T21:18:50.054Z,100759.92
2019-04-04T21:21:20.159Z,100765.17
2019-04-04T21:23:49.924Z,100768.77
2019-04-04T21:26:19.623Z,100762.67
2019-04-04T21:28:49.539Z,100768.39
2019-04-04T21:31:19.255Z,100774.31
2019-04-04T21:33:48.980Z,100770.48
2019-04-04T21:36:18.974Z,100776.33
2019-04-04T21:38:48.716Z,100771.55
2019-04-04T21:41:18.438Z,100774.25
2019-04-04T21:43:48.361Z,100777.36
2019-04-04T21:46:18.212Z,100788.82
2019-04-04T21:48:47.961Z,100783.55
2019-04-04T21:51:17.863Z,100781.46
2019-04-04T21:53:47.873Z,100785.50
2019-04-04T21:56:17.570Z,100782.06
2019-04-04T21:58:47.614Z,100797.42
2019-04-04T22:01:17.636Z,100785.19
2019-04-04T22:03:47.308Z,100790.08
2019-04-04T22:06:17.393Z,100788.34
2019-04-04T22:08:47.476Z,100789.25
2019-04-04T22:11:17.153Z,100791.00
2019-04-04T22:13:47.148Z,100795.91
2019-04-04T22:16:16.775Z,100795.00
2019-04-04T22:18:46.388Z,100795.50
2019-04-04T22:21:16.656Z,100799.95
2019-04-04T22:23:46.323Z,100796.48
2019-04-04T22:26:16.035Z,100800.91
2019-04-04T22:28:46.009Z,100803.58
2019-04-04T22:31:15.726Z,100796.11
2019-04-04T22:33:45.647Z,100792.64
2019-04-04T22:36:15.731Z,100801.98
2019-04-04T22:38:45.676Z,100795.81
2019-04-04T22:41:15.247Z,100804.61
2019-04-04T22:43:45.169Z,100800.25
2019-04-04T22:46:14.835Z,100804.16
2019-04-04T22:48:44.672Z,100803.74
2019-04-04T22:51:14.320Z,100795.91
2019-04-04T22:53:44.138Z,100798.55
2019-04-04T22:56:13.753Z,100806.41
2019-04-04T22:58:43.640Z,100806.42
2019-04-04T23:01:13.526Z,100801.20
2019-04-04T23:03:43.297Z,100809.11
2019-04-04T23:06:13.268Z,100809.20
2019-04-04T23:08:43.029Z,100803.47
2019-04-04T23:11:12.931Z,100806.57
2019-04-04T23:13:42.809Z,100811.44
2019-04-04T23:16:12.715Z,100805.33
2019-04-04T23:18:42.554Z,100811.89
2019-04-04T23:21:12.682Z,100808.42
2019-04-04T23:23:42.384Z,100805.39
2019-04-04T23:26:12.601Z,100804.97
2019-04-04T23:28:42.725Z,100805.81
2019-04-04T23:31:12.388Z,100807.56
2019-04-04T23:33:42.163Z,100807.56
2019-04-04T23:36:12.371Z,100806.66
2019-04-04T23:38:42.122Z,100814.56
2019-04-04T23:41:12.055Z,100816.39
2019-04-04T23:43:41.725Z,100810.22
2019-04-04T23:46:11.477Z,100810.22
2019-04-04T23:48:41.420Z,100812.45
2019-04-04T23:51:11.357Z,100814.24
2019-04-04T23:53:41.065Z,100634.47
2019-04-04T23:56:10.842Z,100805.09
2019-04-04T23:58:40.730Z,100816.06
